sensor_id;sensor_type;location;lat;lon;timestamp;P1;durP1;ratioP1;P2;durP2;ratioP2
2338;SDS011;1180;51.438;6.978;2023-04-03T00:00:37;8.77;;;6.97;;
2338;SDS011;1180;51.438;6.978;2023-04-03T00:03:02;6.87;;;4.87;;
2338;SDS011;1180;51.438;6.978;2023-04-03T00:05:27;7.03;;;5.77;;
2338;SDS011;1180;51.438;6.978;2023-04-03T00:07:53;9.00;;;6.60;;
2338;SDS011;1180;51.438;6.978;2023-04-03T00:10:18;9.80;;;5.10;;
2338;SDS011;1180;51.438;6.978;2023-04-03T00:12:44;6.03;;;5.30;;
2338;SDS011;1180;51.438;6.978;2023-04-03T00:15:09;11.87;;;6.40;;
2338;SDS011;1180;51.438;6.978;2023-04-03T00:17:34;6.13;;;5.10;;
2338;SDS011;1180;51.438;6.978;2023-04-03T00:20:00;8.60;;;6.13;;
2338;SDS011;1180;51.438;6.978;2023-04-03T00:22:25;8.73;;;6.20;;
2338;SDS011;1180;51.438;6.978;2023-04-03T00:24:53;7.65;;;6.18;;
2338;SDS011;1180;51.438;6.978;2023-04-03T00:27:19;6.30;;;5.40;;
2338;SDS011;1180;51.438;6.978;2023-04-03T00:29:44;7.27;;;5.77;;
2338;SDS011;1180;51.438;6.978;2023-04-03T00:32:09;10.27;;;5.93;;
2338;SDS011;1180;51.438;6.978;2023-04-03T00:34:35;7.43;;;5.47;;
2338;SDS011;1180;51.438;6.978;2023-04-03T00:37:00;6.83;;;5.43;;
2338;SDS011;1180;51.438;6.978;2023-04-03T00:39:26;5.90;;;5.30;;
2338;SDS011;1180;51.438;6.978;2023-04-03T00:41:51;7.33;;;5.23;;
2338;SDS011;1180;51.438;6.978;2023-04-03T00:47:00;5.75;;;5.25;;
2338;SDS011;1180;51.438;6.978;2023-04-03T00:49:28;8.93;;;6.00;;
2338;SDS011;1180;51.438;6.978;2023-04-03T00:51:54;6.60;;;5.57;;
2338;SDS011;1180;51.438;6.978;2023-04-03T00:54:22;10.98;;;6.75;;
2338;SDS011;1180;51.438;6.978;2023-04-03T00:56:47;9.10;;;6.03;;
2338;SDS011;1180;51.438;6.978;2023-04-03T00:59:16;8.25;;;6.03;;
2338;SDS011;1180;51.438;6.978;2023-04-03T01:01:48;8.50;;;6.00;;
2338;SDS011;1180;51.438;6.978;2023-04-03T01:07:17;8.25;;;5.80;;
2338;SDS011;1180;51.438;6.978;2023-04-03T01:09:45;7.60;;;5.95;;
2338;SDS011;1180;51.438;6.978;2023-04-03T01:12:17;6.63;;;5.30;;
2338;SDS011;1180;51.438;6.978;2023-04-03T01:14:49;6.13;;;5.15;;
2338;SDS011;1180;51.438;6.978;2023-04-03T01:25:39;4.78;;;4.38;;
2338;SDS011;1180;51.438;6.978;2023-04-03T01:28:08;6.95;;;4.28;;
2338;SDS011;1180;51.438;6.978;2023-04-03T01:30:49;6.97;;;5.40;;
2338;SDS011;1180;51.438;6.978;2023-04-03T01:33:33;4.70;;;4.30;;
2338;SDS011;1180;51.438;6.978;2023-04-03T01:36:00;5.90;;;3.80;;
2338;SDS011;1180;51.438;6.978;2023-04-03T01:38:26;5.25;;;3.88;;
2338;SDS011;1180;51.438;6.978;2023-04-03T01:40:51;4.10;;;3.63;;
2338;SDS011;1180;51.438;6.978;2023-04-03T01:43:16;6.40;;;3.77;;
2338;SDS011;1180;51.438;6.978;2023-04-03T01:45:42;6.23;;;3.83;;
2338;SDS011;1180;51.438;6.978;2023-04-03T01:48:07;5.17;;;3.80;;
2338;SDS011;1180;51.438;6.978;2023-04-03T01:50:33;5.90;;;4.00;;
2338;SDS011;1180;51.438;6.978;2023-04-03T01:52:58;5.63;;;3.17;;
2338;SDS011;1180;51.438;6.978;2023-04-03T01:55:23;5.83;;;3.67;;
2338;SDS011;1180;51.438;6.978;2023-04-03T01:57:49;4.03;;;3.40;;
2338;SDS011;1180;51.438;6.978;2023-04-03T02:00:14;10.60;;;3.67;;
2338;SDS011;1180;51.438;6.978;2023-04-03T02:02:40;5.68;;;3.72;;
2338;SDS011;1180;51.438;6.978;2023-04-03T02:05:05;3.50;;;2.60;;
2338;SDS011;1180;51.438;6.978;2023-04-03T02:07:31;6.00;;;3.47;;
2338;SDS011;1180;51.438;6.978;2023-04-03T02:09:57;4.80;;;3.20;;
2338;SDS011;1180;51.438;6.978;2023-04-03T02:12:22;4.07;;;2.83;;
2338;SDS011;1180;51.438;6.978;2023-04-03T02:14:47;4.23;;;3.43;;
2338;SDS011;1180;51.438;6.978;2023-04-03T02:17:13;3.23;;;2.87;;
2338;SDS011;1180;51.438;6.978;2023-04-03T02:19:38;3.77;;;2.70;;
2338;SDS011;1180;51.438;6.978;2023-04-03T02:22:03;4.50;;;2.93;;
2338;SDS011;1180;51.438;6.978;2023-04-03T02:24:29;4.78;;;2.80;;
2338;SDS011;1180;51.438;6.978;2023-04-03T02:26:55;7.20;;;3.17;;
2338;SDS011;1180;51.438;6.978;2023-04-03T02:29:21;3.07;;;2.63;;
2338;SDS011;1180;51.438;6.978;2023-04-03T02:31:46;5.27;;;2.60;;
2338;SDS011;1180;51.438;6.978;2023-04-03T02:34:11;4.37;;;2.53;;
2338;SDS011;1180;51.438;6.978;2023-04-03T02:36:37;5.10;;;2.10;;
2338;SDS011;1180;51.438;6.978;2023-04-03T02:39:02;5.10;;;2.27;;
2338;SDS011;1180;51.438;6.978;2023-04-03T02:41:28;4.00;;;2.37;;
2338;SDS011;1180;51.438;6.978;2023-04-03T02:44:00;4.25;;;2.50;;
2338;SDS011;1180;51.438;6.978;2023-04-03T02:46:26;3.25;;;2.70;;
2338;SDS011;1180;51.438;6.978;2023-04-03T02:48:51;5.77;;;2.30;;
2338;SDS011;1180;51.438;6.978;2023-04-03T02:51:16;3.37;;;1.97;;
2338;SDS011;1180;51.438;6.978;2023-04-03T02:53:42;5.20;;;3.50;;
2338;SDS011;1180;51.438;6.978;2023-04-03T02:56:08;4.90;;;2.80;;
2338;SDS011;1180;51.438;6.978;2023-04-03T02:58:33;5.67;;;2.83;;
2338;SDS011;1180;51.438;6.978;2023-04-03T03:00:58;3.57;;;2.03;;
2338;SDS011;1180;51.438;6.978;2023-04-03T03:03:24;4.40;;;2.30;;
2338;SDS011;1180;51.438;6.978;2023-04-03T03:05:49;3.97;;;2.67;;
2338;SDS011;1180;51.438;6.978;2023-04-03T03:08:14;6.43;;;2.70;;
2338;SDS011;1180;51.438;6.978;2023-04-03T03:10:40;3.77;;;2.10;;
2338;SDS011;1180;51.438;6.978;2023-04-03T03:13:05;4.20;;;3.13;;
2338;SDS011;1180;51.438;6.978;2023-04-03T03:15:31;3.97;;;2.30;;
2338;SDS011;1180;51.438;6.978;2023-04-03T03:17:56;3.07;;;2.13;;
2338;SDS011;1180;51.438;6.978;2023-04-03T03:20:21;3.63;;;2.80;;
2338;SDS011;1180;51.438;6.978;2023-04-03T03:22:47;3.97;;;2.17;;
2338;SDS011;1180;51.438;6.978;2023-04-03T03:25:12;6.30;;;2.10;;
2338;SDS011;1180;51.438;6.978;2023-04-03T03:27:37;8.90;;;2.57;;
2338;SDS011;1180;51.438;6.978;2023-04-03T03:30:03;5.37;;;2.33;;
2338;SDS011;1180;51.438;6.978;2023-04-03T03:32:30;4.97;;;2.05;;
2338;SDS011;1180;51.438;6.978;2023-04-03T03:34:55;2.73;;;2.17;;
2338;SDS011;1180;51.438;6.978;2023-04-03T03:37:20;4.53;;;2.30;;
2338;SDS011;1180;51.438;6.978;2023-04-03T03:39:46;2.97;;;1.73;;
2338;SDS011;1180;51.438;6.978;2023-04-03T03:42:11;3.27;;;2.97;;
2338;SDS011;1180;51.438;6.978;2023-04-03T03:44:36;2.93;;;1.57;;
2338;SDS011;1180;51.438;6.978;2023-04-03T03:47:01;4.90;;;2.30;;
2338;SDS011;1180;51.438;6.978;2023-04-03T03:49:28;3.17;;;2.00;;
2338;SDS011;1180;51.438;6.978;2023-04-03T03:51:53;3.63;;;2.13;;
2338;SDS011;1180;51.438;6.978;2023-04-03T03:54:19;5.17;;;2.53;;
2338;SDS011;1180;51.438;6.978;2023-04-03T03:56:45;5.30;;;2.20;;
2338;SDS011;1180;51.438;6.978;2023-04-03T03:59:11;2.50;;;1.63;;
2338;SDS011;1180;51.438;6.978;2023-04-03T04:01:37;3.45;;;1.50;;
2338;SDS011;1180;51.438;6.978;2023-04-03T04:04:02;2.50;;;1.47;;
2338;SDS011;1180;51.438;6.978;2023-04-03T04:06:28;5.43;;;2.70;;
2338;SDS011;1180;51.438;6.978;2023-04-03T04:08:53;3.30;;;1.63;;
2338;SDS011;1180;51.438;6.978;2023-04-03T04:11:19;4.10;;;1.93;;
2338;SDS011;1180;51.438;6.978;2023-04-03T04:13:46;5.15;;;1.83;;
2338;SDS011;1180;51.438;6.978;2023-04-03T04:16:11;2.70;;;1.73;;
2338;SDS011;1180;51.438;6.978;2023-04-03T04:18:37;4.93;;;2.23;;
2338;SDS011;1180;51.438;6.978;2023-04-03T04:21:02;5.10;;;2.30;;
2338;SDS011;1180;51.438;6.978;2023-04-03T04:23:27;4.13;;;1.97;;
2338;SDS011;1180;51.438;6.978;2023-04-03T04:25:53;5.83;;;2.70;;
2338;SDS011;1180;51.438;6.978;2023-04-03T04:28:18;3.50;;;2.00;;
2338;SDS011;1180;51.438;6.978;2023-04-03T04:30:44;3.33;;;1.90;;
2338;SDS011;1180;51.438;6.978;2023-04-03T04:33:09;2.95;;;1.75;;
2338;SDS011;1180;51.438;6.978;2023-04-03T04:35:35;4.23;;;2.10;;
2338;SDS011;1180;51.438;6.978;2023-04-03T04:38:01;6.37;;;2.40;;
2338;SDS011;1180;51.438;6.978;2023-04-03T04:40:26;3.40;;;2.33;;
2338;SDS011;1180;51.438;6.978;2023-04-03T04:42:52;3.40;;;1.90;;
2338;SDS011;1180;51.438;6.978;2023-04-03T04:45:17;4.10;;;2.00;;
2338;SDS011;1180;51.438;6.978;2023-04-03T04:47:43;6.03;;;3.10;;
2338;SDS011;1180;51.438;6.978;2023-04-03T04:50:08;12.23;;;2.87;;
2338;SDS011;1180;51.438;6.978;2023-04-03T04:52:34;5.82;;;2.53;;
2338;SDS011;1180;51.438;6.978;2023-04-03T04:55:00;5.57;;;2.50;;
2338;SDS011;1180;51.438;6.978;2023-04-03T04:57:25;6.13;;;2.40;;
2338;SDS011;1180;51.438;6.978;2023-04-03T04:59:50;2.30;;;2.10;;
2338;SDS011;1180;51.438;6.978;2023-04-03T05:02:16;6.27;;;2.60;;
2338;SDS011;1180;51.438;6.978;2023-04-03T05:04:41;3.17;;;2.10;;
2338;SDS011;1180;51.438;6.978;2023-04-03T05:07:07;2.33;;;1.70;;
2338;SDS011;1180;51.438;6.978;2023-04-03T05:09:32;5.67;;;2.00;;
2338;SDS011;1180;51.438;6.978;2023-04-03T05:11:58;3.57;;;2.27;;
2338;SDS011;1180;51.438;6.978;2023-04-03T05:14:23;3.20;;;2.10;;
2338;SDS011;1180;51.438;6.978;2023-04-03T05:16:48;4.80;;;2.10;;
2338;SDS011;1180;51.438;6.978;2023-04-03T05:19:17;4.50;;;2.47;;
2338;SDS011;1180;51.438;6.978;2023-04-03T05:21:43;6.63;;;2.20;;
2338;SDS011;1180;51.438;6.978;2023-04-03T05:24:08;6.60;;;2.20;;
2338;SDS011;1180;51.438;6.978;2023-04-03T05:26:34;2.40;;;1.97;;
2338;SDS011;1180;51.438;6.978;2023-04-03T05:28:59;3.93;;;2.17;;
2338;SDS011;1180;51.438;6.978;2023-04-03T05:31:25;4.50;;;1.80;;
2338;SDS011;1180;51.438;6.978;2023-04-03T05:33:50;3.97;;;1.73;;
2338;SDS011;1180;51.438;6.978;2023-04-03T05:36:15;4.73;;;2.50;;
2338;SDS011;1180;51.438;6.978;2023-04-03T05:38:41;4.23;;;2.27;;
2338;SDS011;1180;51.438;6.978;2023-04-03T05:41:07;6.43;;;3.27;;
2338;SDS011;1180;51.438;6.978;2023-04-03T05:43:33;4.18;;;2.10;;
2338;SDS011;1180;51.438;6.978;2023-04-03T05:45:59;3.70;;;2.00;;
2338;SDS011;1180;51.438;6.978;2023-04-03T05:48:24;5.13;;;2.60;;
2338;SDS011;1180;51.438;6.978;2023-04-03T05:50:50;3.60;;;2.20;;
2338;SDS011;1180;51.438;6.978;2023-04-03T05:53:18;8.20;;;3.10;;
2338;SDS011;1180;51.438;6.978;2023-04-03T05:55:48;7.95;;;2.88;;
2338;SDS011;1180;51.438;6.978;2023-04-03T05:58:14;5.67;;;2.70;;
2338;SDS011;1180;51.438;6.978;2023-04-03T06:00:39;4.97;;;2.93;;
2338;SDS011;1180;51.438;6.978;2023-04-03T06:03:06;3.60;;;2.13;;
2338;SDS011;1180;51.438;6.978;2023-04-03T06:05:31;5.32;;;2.50;;
2338;SDS011;1180;51.438;6.978;2023-04-03T06:07:57;8.77;;;2.80;;
2338;SDS011;1180;51.438;6.978;2023-04-03T06:10:22;4.20;;;2.40;;
2338;SDS011;1180;51.438;6.978;2023-04-03T06:12:48;5.70;;;2.57;;
2338;SDS011;1180;51.438;6.978;2023-04-03T06:15:13;5.53;;;2.20;;
2338;SDS011;1180;51.438;6.978;2023-04-03T06:17:39;5.43;;;2.20;;
2338;SDS011;1180;51.438;6.978;2023-04-03T06:20:05;6.77;;;2.27;;
2338;SDS011;1180;51.438;6.978;2023-04-03T06:22:31;5.28;;;2.88;;
2338;SDS011;1180;51.438;6.978;2023-04-03T06:24:57;8.13;;;4.03;;
2338;SDS011;1180;51.438;6.978;2023-04-03T06:27:22;4.60;;;2.33;;
2338;SDS011;1180;51.438;6.978;2023-04-03T06:29:47;2.23;;;1.90;;
2338;SDS011;1180;51.438;6.978;2023-04-03T06:32:14;4.50;;;2.60;;
2338;SDS011;1180;51.438;6.978;2023-04-03T06:34:40;7.43;;;3.25;;
2338;SDS011;1180;51.438;6.978;2023-04-03T06:37:06;4.57;;;3.30;;
2338;SDS011;1180;51.438;6.978;2023-04-03T06:39:36;7.32;;;2.50;;
2338;SDS011;1180;51.438;6.978;2023-04-03T06:42:01;6.10;;;2.60;;
2338;SDS011;1180;51.438;6.978;2023-04-03T06:44:26;4.77;;;2.40;;
2338;SDS011;1180;51.438;6.978;2023-04-03T06:46:52;5.17;;;2.30;;
2338;SDS011;1180;51.438;6.978;2023-04-03T06:49:19;2.92;;;2.30;;
2338;SDS011;1180;51.438;6.978;2023-04-03T06:51:44;4.53;;;3.00;;
2338;SDS011;1180;51.438;6.978;2023-04-03T06:54:10;6.00;;;2.40;;
2338;SDS011;1180;51.438;6.978;2023-04-03T06:56:35;5.73;;;2.20;;
2338;SDS011;1180;51.438;6.978;2023-04-03T06:59:01;6.33;;;2.80;;
2338;SDS011;1180;51.438;6.978;2023-04-03T07:01:27;9.57;;;3.27;;
2338;SDS011;1180;51.438;6.978;2023-04-03T07:03:54;4.10;;;2.50;;
2338;SDS011;1180;51.438;6.978;2023-04-03T07:06:19;3.60;;;2.37;;
2338;SDS011;1180;51.438;6.978;2023-04-03T07:08:45;5.50;;;2.37;;
2338;SDS011;1180;51.438;6.978;2023-04-03T07:11:12;6.47;;;3.03;;
2338;SDS011;1180;51.438;6.978;2023-04-03T07:13:38;6.15;;;2.35;;
2338;SDS011;1180;51.438;6.978;2023-04-03T07:16:04;8.40;;;2.65;;
2338;SDS011;1180;51.438;6.978;2023-04-03T07:18:31;3.83;;;2.30;;
2338;SDS011;1180;51.438;6.978;2023-04-03T07:20:57;3.85;;;2.78;;
2338;SDS011;1180;51.438;6.978;2023-04-03T07:23:23;4.57;;;2.20;;
2338;SDS011;1180;51.438;6.978;2023-04-03T07:25:50;3.55;;;2.83;;
2338;SDS011;1180;51.438;6.978;2023-04-03T07:28:16;5.22;;;2.20;;
2338;SDS011;1180;51.438;6.978;2023-04-03T07:30:47;5.07;;;2.78;;
2338;SDS011;1180;51.438;6.978;2023-04-03T07:33:15;6.88;;;2.50;;
2338;SDS011;1180;51.438;6.978;2023-04-03T07:35:42;6.03;;;2.88;;
2338;SDS011;1180;51.438;6.978;2023-04-03T07:38:09;4.63;;;3.30;;
2338;SDS011;1180;51.438;6.978;2023-04-03T07:40:35;4.22;;;2.00;;
2338;SDS011;1180;51.438;6.978;2023-04-03T07:43:01;4.95;;;3.00;;
2338;SDS011;1180;51.438;6.978;2023-04-03T07:45:27;4.13;;;2.17;;
2338;SDS011;1180;51.438;6.978;2023-04-03T07:47:54;3.60;;;2.03;;
2338;SDS011;1180;51.438;6.978;2023-04-03T07:50:20;7.23;;;2.70;;
2338;SDS011;1180;51.438;6.978;2023-04-03T07:52:46;4.80;;;2.23;;
2338;SDS011;1180;51.438;6.978;2023-04-03T07:55:16;5.97;;;2.20;;
2338;SDS011;1180;51.438;6.978;2023-04-03T07:57:42;6.90;;;3.75;;
2338;SDS011;1180;51.438;6.978;2023-04-03T08:00:08;8.55;;;3.33;;
2338;SDS011;1180;51.438;6.978;2023-04-03T08:02:34;3.00;;;1.95;;
2338;SDS011;1180;51.438;6.978;2023-04-03T08:05:00;4.47;;;2.30;;
2338;SDS011;1180;51.438;6.978;2023-04-03T08:07:26;5.90;;;3.20;;
2338;SDS011;1180;51.438;6.978;2023-04-03T08:09:52;5.27;;;2.10;;
2338;SDS011;1180;51.438;6.978;2023-04-03T08:12:18;4.57;;;2.70;;
2338;SDS011;1180;51.438;6.978;2023-04-03T08:14:44;6.82;;;2.35;;
2338;SDS011;1180;51.438;6.978;2023-04-03T08:17:10;3.20;;;2.90;;
2338;SDS011;1180;51.438;6.978;2023-04-03T08:19:38;7.68;;;2.40;;
2338;SDS011;1180;51.438;6.978;2023-04-03T08:22:04;3.83;;;2.08;;
2338;SDS011;1180;51.438;6.978;2023-04-03T08:24:31;10.82;;;2.40;;
2338;SDS011;1180;51.438;6.978;2023-04-03T08:26:58;6.10;;;1.80;;
2338;SDS011;1180;51.438;6.978;2023-04-03T08:29:24;4.70;;;1.33;;
2338;SDS011;1180;51.438;6.978;2023-04-03T08:31:49;3.80;;;2.10;;
2338;SDS011;1180;51.438;6.978;2023-04-03T08:34:15;1.60;;;1.40;;
2338;SDS011;1180;51.438;6.978;2023-04-03T08:36:42;5.73;;;1.93;;
2338;SDS011;1180;51.438;6.978;2023-04-03T08:39:08;2.55;;;1.70;;
2338;SDS011;1180;51.438;6.978;2023-04-03T08:47:04;3.83;;;1.38;;
2338;SDS011;1180;51.438;6.978;2023-04-03T08:49:55;3.55;;;1.20;;
2338;SDS011;1180;51.438;6.978;2023-04-03T08:52:32;3.97;;;1.77;;
2338;SDS011;1180;51.438;6.978;2023-04-03T08:55:42;4.15;;;1.77;;
2338;SDS011;1180;51.438;6.978;2023-04-03T08:57:48;3.72;;;1.55;;
2338;SDS011;1180;51.438;6.978;2023-04-03T09:00:24;2.70;;;1.63;;
2338;SDS011;1180;51.438;6.978;2023-04-03T09:02:54;1.85;;;1.48;;
2338;SDS011;1180;51.438;6.978;2023-04-03T09:10:46;5.55;;;2.17;;
2338;SDS011;1180;51.438;6.978;2023-04-03T09:15:51;1.77;;;1.20;;
2338;SDS011;1180;51.438;6.978;2023-04-03T09:18:23;2.13;;;1.33;;
2338;SDS011;1180;51.438;6.978;2023-04-03T09:21:03;1.50;;;1.40;;
2338;SDS011;1180;51.438;6.978;2023-04-03T09:23:51;3.60;;;1.35;;
2338;SDS011;1180;51.438;6.978;2023-04-03T09:26:25;3.33;;;1.20;;
2338;SDS011;1180;51.438;6.978;2023-04-03T09:28:54;4.82;;;1.58;;
2338;SDS011;1180;51.438;6.978;2023-04-03T09:31:29;4.23;;;1.33;;
2338;SDS011;1180;51.438;6.978;2023-04-03T09:37:03;3.23;;;1.47;;
2338;SDS011;1180;51.438;6.978;2023-04-03T09:39:52;5.40;;;1.83;;
2338;SDS011;1180;51.438;6.978;2023-04-03T09:42:20;2.00;;;1.30;;
2338;SDS011;1180;51.438;6.978;2023-04-03T09:44:54;2.23;;;1.20;;
2338;SDS011;1180;51.438;6.978;2023-04-03T09:47:26;3.60;;;1.20;;
2338;SDS011;1180;51.438;6.978;2023-04-03T09:50:18;1.57;;;0.97;;
2338;SDS011;1180;51.438;6.978;2023-04-03T09:52:47;3.83;;;1.33;;
2338;SDS011;1180;51.438;6.978;2023-04-03T09:55:23;1.63;;;1.23;;
2338;SDS011;1180;51.438;6.978;2023-04-03T09:58:02;1.97;;;1.43;;
2338;SDS011;1180;51.438;6.978;2023-04-03T10:03:05;4.03;;;1.27;;
2338;SDS011;1180;51.438;6.978;2023-04-03T10:05:48;4.70;;;1.53;;
2338;SDS011;1180;51.438;6.978;2023-04-03T10:10:42;2.20;;;1.33;;
2338;SDS011;1180;51.438;6.978;2023-04-03T10:13:19;2.50;;;1.00;;
2338;SDS011;1180;51.438;6.978;2023-04-03T10:16:03;2.40;;;1.10;;
2338;SDS011;1180;51.438;6.978;2023-04-03T10:21:06;3.23;;;1.53;;
2338;SDS011;1180;51.438;6.978;2023-04-03T10:26:26;3.77;;;1.60;;
2338;SDS011;1180;51.438;6.978;2023-04-03T10:29:16;1.97;;;1.50;;
2338;SDS011;1180;51.438;6.978;2023-04-03T10:34:47;2.30;;;1.47;;
2338;SDS011;1180;51.438;6.978;2023-04-03T10:39:57;2.33;;;1.70;;
2338;SDS011;1180;51.438;6.978;2023-04-03T10:48:04;2.30;;;1.70;;
2338;SDS011;1180;51.438;6.978;2023-04-03T10:58:50;4.43;;;1.50;;
2338;SDS011;1180;51.438;6.978;2023-04-03T11:01:35;1.50;;;1.33;;
2338;SDS011;1180;51.438;6.978;2023-04-03T11:04:07;2.83;;;1.50;;
2338;SDS011;1180;51.438;6.978;2023-04-03T11:06:43;1.90;;;1.13;;
2338;SDS011;1180;51.438;6.978;2023-04-03T11:11:41;1.73;;;1.40;;
2338;SDS011;1180;51.438;6.978;2023-04-03T11:23:03;3.37;;;1.70;;
2338;SDS011;1180;51.438;6.978;2023-04-03T11:25:32;5.80;;;1.73;;
2338;SDS011;1180;51.438;6.978;2023-04-03T11:28:03;3.33;;;1.50;;
2338;SDS011;1180;51.438;6.978;2023-04-03T11:31:35;4.10;;;1.90;;
2338;SDS011;1180;51.438;6.978;2023-04-03T11:33:43;3.63;;;1.57;;
2338;SDS011;1180;51.438;6.978;2023-04-03T11:36:41;2.20;;;1.37;;
2338;SDS011;1180;51.438;6.978;2023-04-03T11:39:32;2.50;;;1.40;;
2338;SDS011;1180;51.438;6.978;2023-04-03T11:44:51;4.13;;;1.30;;
2338;SDS011;1180;51.438;6.978;2023-04-03T12:16:23;5.53;;;1.50;;
2338;SDS011;1180;51.438;6.978;2023-04-03T12:19:02;5.50;;;2.07;;
2338;SDS011;1180;51.438;6.978;2023-04-03T12:26:48;1.60;;;1.33;;
2338;SDS011;1180;51.438;6.978;2023-04-03T12:32:15;2.53;;;1.47;;
2338;SDS011;1180;51.438;6.978;2023-04-03T12:51:14;2.63;;;1.17;;
2338;SDS011;1180;51.438;6.978;2023-04-03T12:53:43;5.20;;;2.60;;
2338;SDS011;1180;51.438;6.978;2023-04-03T12:56:29;2.57;;;1.40;;
2338;SDS011;1180;51.438;6.978;2023-04-03T13:01:52;3.20;;;1.57;;
2338;SDS011;1180;51.438;6.978;2023-04-03T13:04:20;3.50;;;1.83;;
2338;SDS011;1180;51.438;6.978;2023-04-03T13:06:46;2.10;;;1.40;;
2338;SDS011;1180;51.438;6.978;2023-04-03T13:09:30;3.03;;;1.40;;
2338;SDS011;1180;51.438;6.978;2023-04-03T13:12:17;2.67;;;1.40;;
2338;SDS011;1180;51.438;6.978;2023-04-03T13:14:52;2.30;;;1.40;;
2338;SDS011;1180;51.438;6.978;2023-04-03T13:17:20;4.60;;;1.33;;
2338;SDS011;1180;51.438;6.978;2023-04-03T13:19:50;2.23;;;1.80;;
2338;SDS011;1180;51.438;6.978;2023-04-03T13:22:25;2.77;;;1.53;;
2338;SDS011;1180;51.438;6.978;2023-04-03T13:24:54;3.73;;;1.40;;
2338;SDS011;1180;51.438;6.978;2023-04-03T13:27:21;5.33;;;1.40;;
2338;SDS011;1180;51.438;6.978;2023-04-03T13:29:54;3.60;;;1.63;;
2338;SDS011;1180;51.438;6.978;2023-04-03T13:32:23;2.13;;;1.70;;
2338;SDS011;1180;51.438;6.978;2023-04-03T13:34:51;2.40;;;1.47;;
2338;SDS011;1180;51.438;6.978;2023-04-03T13:37:30;1.23;;;0.97;;
2338;SDS011;1180;51.438;6.978;2023-04-03T13:42:35;2.07;;;1.20;;
2338;SDS011;1180;51.438;6.978;2023-04-03T13:47:41;2.60;;;1.47;;
2338;SDS011;1180;51.438;6.978;2023-04-03T13:52:43;5.00;;;1.87;;
2338;SDS011;1180;51.438;6.978;2023-04-03T13:55:17;2.10;;;1.40;;
2338;SDS011;1180;51.438;6.978;2023-04-03T13:57:57;4.83;;;1.40;;
2338;SDS011;1180;51.438;6.978;2023-04-03T14:03:11;2.20;;;1.30;;
2338;SDS011;1180;51.438;6.978;2023-04-03T14:05:58;2.50;;;1.40;;
2338;SDS011;1180;51.438;6.978;2023-04-03T14:08:25;2.73;;;1.40;;
2338;SDS011;1180;51.438;6.978;2023-04-03T14:10:52;4.77;;;1.93;;
2338;SDS011;1180;51.438;6.978;2023-04-03T14:13:18;2.20;;;1.20;;
2338;SDS011;1180;51.438;6.978;2023-04-03T14:15:45;3.40;;;1.50;;
2338;SDS011;1180;51.438;6.978;2023-04-03T14:18:13;2.23;;;1.57;;
2338;SDS011;1180;51.438;6.978;2023-04-03T14:20:42;1.70;;;1.53;;
2338;SDS011;1180;51.438;6.978;2023-04-03T14:23:07;2.30;;;1.43;;
2338;SDS011;1180;51.438;6.978;2023-04-03T14:25:33;2.13;;;1.30;;
2338;SDS011;1180;51.438;6.978;2023-04-03T14:27:59;2.17;;;1.47;;
2338;SDS011;1180;51.438;6.978;2023-04-03T14:30:32;2.93;;;1.40;;
2338;SDS011;1180;51.438;6.978;2023-04-03T14:32:59;3.43;;;1.20;;
2338;SDS011;1180;51.438;6.978;2023-04-03T14:35:25;1.73;;;1.33;;
2338;SDS011;1180;51.438;6.978;2023-04-03T14:37:51;2.67;;;1.60;;
2338;SDS011;1180;51.438;6.978;2023-04-03T14:40:19;3.10;;;1.37;;
2338;SDS011;1180;51.438;6.978;2023-04-03T14:42:48;1.97;;;1.37;;
2338;SDS011;1180;51.438;6.978;2023-04-03T14:45:15;1.50;;;1.30;;
2338;SDS011;1180;51.438;6.978;2023-04-03T14:47:45;2.07;;;1.37;;
2338;SDS011;1180;51.438;6.978;2023-04-03T14:50:15;2.80;;;1.27;;
2338;SDS011;1180;51.438;6.978;2023-04-03T14:52:48;1.37;;;1.20;;
2338;SDS011;1180;51.438;6.978;2023-04-03T14:55:16;2.50;;;1.57;;
2338;SDS011;1180;51.438;6.978;2023-04-03T14:57:44;2.00;;;1.30;;
2338;SDS011;1180;51.438;6.978;2023-04-03T15:00:14;3.60;;;1.80;;
2338;SDS011;1180;51.438;6.978;2023-04-03T15:02:42;2.03;;;1.30;;
2338;SDS011;1180;51.438;6.978;2023-04-03T15:05:08;1.97;;;1.10;;
2338;SDS011;1180;51.438;6.978;2023-04-03T15:07:36;2.10;;;1.47;;
2338;SDS011;1180;51.438;6.978;2023-04-03T15:10:18;2.70;;;1.70;;
2338;SDS011;1180;51.438;6.978;2023-04-03T15:12:46;3.30;;;1.50;;
2338;SDS011;1180;51.438;6.978;2023-04-03T15:15:13;1.43;;;1.03;;
2338;SDS011;1180;51.438;6.978;2023-04-03T15:17:41;2.57;;;1.57;;
2338;SDS011;1180;51.438;6.978;2023-04-03T15:20:15;4.30;;;2.17;;
2338;SDS011;1180;51.438;6.978;2023-04-03T15:22:44;1.37;;;1.20;;
2338;SDS011;1180;51.438;6.978;2023-04-03T15:25:10;3.57;;;1.67;;
2338;SDS011;1180;51.438;6.978;2023-04-03T15:27:36;4.07;;;1.33;;
2338;SDS011;1180;51.438;6.978;2023-04-03T15:30:04;3.17;;;1.73;;
2338;SDS011;1180;51.438;6.978;2023-04-03T15:32:30;1.90;;;1.20;;
2338;SDS011;1180;51.438;6.978;2023-04-03T15:34:56;2.60;;;1.20;;
2338;SDS011;1180;51.438;6.978;2023-04-03T15:37:22;3.90;;;1.40;;
2338;SDS011;1180;51.438;6.978;2023-04-03T15:39:48;3.10;;;1.40;;
2338;SDS011;1180;51.438;6.978;2023-04-03T15:42:13;2.90;;;1.70;;
2338;SDS011;1180;51.438;6.978;2023-04-03T15:44:39;3.00;;;1.67;;
2338;SDS011;1180;51.438;6.978;2023-04-03T15:47:07;2.80;;;1.37;;
2338;SDS011;1180;51.438;6.978;2023-04-03T15:49:33;3.57;;;1.63;;
2338;SDS011;1180;51.438;6.978;2023-04-03T15:52:02;3.57;;;1.73;;
2338;SDS011;1180;51.438;6.978;2023-04-03T15:54:28;2.63;;;1.43;;
2338;SDS011;1180;51.438;6.978;2023-04-03T15:56:54;1.80;;;1.50;;
2338;SDS011;1180;51.438;6.978;2023-04-03T15:59:20;2.03;;;1.50;;
2338;SDS011;1180;51.438;6.978;2023-04-03T16:01:46;3.50;;;1.40;;
2338;SDS011;1180;51.438;6.978;2023-04-03T16:04:13;3.17;;;1.50;;
2338;SDS011;1180;51.438;6.978;2023-04-03T16:06:40;2.47;;;1.60;;
2338;SDS011;1180;51.438;6.978;2023-04-03T16:09:06;2.03;;;1.37;;
2338;SDS011;1180;51.438;6.978;2023-04-03T16:11:32;1.63;;;1.30;;
2338;SDS011;1180;51.438;6.978;2023-04-03T16:13:59;1.80;;;1.17;;
2338;SDS011;1180;51.438;6.978;2023-04-03T16:16:25;3.60;;;1.70;;
2338;SDS011;1180;51.438;6.978;2023-04-03T16:18:52;3.53;;;1.47;;
2338;SDS011;1180;51.438;6.978;2023-04-03T16:21:19;4.10;;;1.43;;
2338;SDS011;1180;51.438;6.978;2023-04-03T16:23:45;3.27;;;1.53;;
2338;SDS011;1180;51.438;6.978;2023-04-03T16:26:11;5.83;;;2.13;;
2338;SDS011;1180;51.438;6.978;2023-04-03T16:28:37;4.00;;;2.20;;
2338;SDS011;1180;51.438;6.978;2023-04-03T16:31:05;3.03;;;1.73;;
2338;SDS011;1180;51.438;6.978;2023-04-03T16:33:32;2.20;;;1.53;;
2338;SDS011;1180;51.438;6.978;2023-04-03T16:35:58;2.37;;;1.67;;
2338;SDS011;1180;51.438;6.978;2023-04-03T16:38:24;2.10;;;1.40;;
2338;SDS011;1180;51.438;6.978;2023-04-03T16:40:50;1.63;;;1.23;;
2338;SDS011;1180;51.438;6.978;2023-04-03T16:43:17;3.90;;;1.50;;
2338;SDS011;1180;51.438;6.978;2023-04-03T16:45:42;2.90;;;1.47;;
2338;SDS011;1180;51.438;6.978;2023-04-03T16:48:08;6.93;;;2.37;;
2338;SDS011;1180;51.438;6.978;2023-04-03T16:50:34;1.60;;;1.43;;
2338;SDS011;1180;51.438;6.978;2023-04-03T16:53:00;2.23;;;1.50;;
2338;SDS011;1180;51.438;6.978;2023-04-03T16:55:27;3.00;;;1.73;;
2338;SDS011;1180;51.438;6.978;2023-04-03T16:57:53;1.10;;;1.00;;
2338;SDS011;1180;51.438;6.978;2023-04-03T17:00:19;2.03;;;1.30;;
2338;SDS011;1180;51.438;6.978;2023-04-03T17:02:47;2.67;;;1.53;;
2338;SDS011;1180;51.438;6.978;2023-04-03T17:05:13;3.37;;;1.50;;
2338;SDS011;1180;51.438;6.978;2023-04-03T17:07:39;2.53;;;1.40;;
2338;SDS011;1180;51.438;6.978;2023-04-03T17:10:05;3.10;;;2.00;;
2338;SDS011;1180;51.438;6.978;2023-04-03T17:12:32;2.70;;;1.90;;
2338;SDS011;1180;51.438;6.978;2023-04-03T17:14:57;3.37;;;1.83;;
2338;SDS011;1180;51.438;6.978;2023-04-03T17:17:23;2.90;;;1.63;;
2338;SDS011;1180;51.438;6.978;2023-04-03T17:19:50;3.60;;;1.50;;
2338;SDS011;1180;51.438;6.978;2023-04-03T17:22:19;2.40;;;1.43;;
2338;SDS011;1180;51.438;6.978;2023-04-03T17:24:45;3.10;;;1.80;;
2338;SDS011;1180;51.438;6.978;2023-04-03T17:27:10;4.53;;;1.67;;
2338;SDS011;1180;51.438;6.978;2023-04-03T17:29:36;3.67;;;1.83;;
2338;SDS011;1180;51.438;6.978;2023-04-03T17:32:01;1.60;;;1.30;;
2338;SDS011;1180;51.438;6.978;2023-04-03T17:34:27;2.40;;;1.40;;
2338;SDS011;1180;51.438;6.978;2023-04-03T17:36:52;4.03;;;1.50;;
2338;SDS011;1180;51.438;6.978;2023-04-03T17:39:20;1.87;;;1.33;;
2338;SDS011;1180;51.438;6.978;2023-04-03T17:41:45;1.77;;;1.63;;